createdAt,value
2022-09-07T14:06:29.381Z,64.78
2022-09-07T14:07:29.392Z,65.26
2022-09-07T14:08:29.171Z,64.29
2022-09-07T14:09:29.040Z,64.94
2022-09-07T14:10:29.063Z,64.61
2022-09-07T14:11:29.075Z,63.00
2022-09-07T14:12:29.073Z,63.65
2022-09-07T14:13:29.091Z,61.39
2022-09-07T14:14:29.104Z,64.61
2022-09-07T14:15:29.000Z,66.71
2022-09-07T14:16:29.729Z,67.51
2022-09-07T14:17:28.964Z,63.65
2022-09-07T14:18:28.992Z,67.03
2022-09-07T14:19:28.977Z,68.00
2022-09-07T14:20:28.917Z,64.78
2022-09-07T14:21:28.949Z,63.00
2022-09-07T14:22:28.933Z,67.19
2022-09-07T14:23:28.957Z,68.48
2022-09-07T14:24:28.908Z,64.94
2022-09-07T14:25:29.540Z,63.81
2022-09-07T14:26:28.840Z,65.10
2022-09-07T14:27:28.867Z,63.33
2022-09-07T14:28:28.860Z,68.64
2022-09-07T14:29:28.875Z,64.45
2022-09-07T14:30:28.870Z,68.00
2022-09-07T14:31:28.830Z,66.39
2022-09-07T14:32:28.805Z,62.84
2022-09-07T14:33:29.441Z,65.58
2022-09-07T14:34:29.822Z,67.03
2022-09-07T14:35:28.794Z,63.16
2022-09-07T14:36:44.063Z,67.19
2022-09-07T14:37:30.816Z,66.23
2022-09-07T14:39:30.838Z,65.10
2022-09-07T14:40:29.955Z,66.06
2022-09-07T14:41:29.729Z,66.23
2022-09-07T14:42:28.741Z,67.03
2022-09-07T14:43:28.713Z,64.29
2022-09-07T14:44:28.693Z,65.58
2022-09-07T14:45:28.799Z,64.94
2022-09-07T14:46:28.717Z,67.03
2022-09-07T14:47:29.141Z,64.61
2022-09-07T14:48:32.717Z,65.90
2022-09-07T14:49:29.609Z,65.58
2022-09-07T14:50:28.615Z,66.06
2022-09-07T14:51:35.199Z,63.49
2022-09-07T14:52:31.071Z,65.90
2022-09-07T14:53:36.141Z,65.26
2022-09-07T14:54:30.603Z,66.23
2022-09-07T14:55:28.563Z,64.45
2022-09-07T14:56:28.556Z,67.03
2022-09-07T14:57:28.786Z,64.78
2022-09-07T14:58:28.852Z,67.68
2022-09-07T14:59:28.515Z,66.87
2022-09-07T15:00:29.234Z,64.94
2022-09-07T15:01:43.889Z,66.87
2022-09-07T15:02:30.651Z,66.39
2022-09-07T15:03:28.494Z,64.13
2022-09-07T15:04:28.555Z,66.39
2022-09-07T15:05:28.503Z,68.16
2022-09-07T15:07:30.564Z,65.58
2022-09-07T15:08:28.517Z,64.94
2022-09-07T15:09:28.442Z,59.46
2022-09-07T15:10:28.419Z,64.29
2022-09-07T15:11:35.706Z,67.19
2022-09-07T15:12:38.187Z,67.19
2022-09-07T15:13:29.301Z,67.03
2022-09-07T15:14:28.379Z,68.80
2022-09-07T15:15:28.395Z,64.78
2022-09-07T15:16:28.388Z,64.13
2022-09-07T15:17:44.288Z,67.03
2022-09-07T15:18:30.437Z,68.00
2022-09-07T15:19:28.322Z,65.42
2022-09-07T15:20:28.279Z,63.81
2022-09-07T15:21:28.326Z,65.74
2022-09-07T15:22:28.279Z,67.51
2022-09-07T15:23:28.391Z,65.42
2022-09-07T15:24:28.296Z,65.58
2022-09-07T15:25:28.343Z,65.26
2022-09-07T15:27:30.219Z,64.61
2022-09-07T15:29:30.607Z,59.62
2022-09-07T15:30:28.208Z,65.58
2022-09-07T15:31:50.038Z,64.61
2022-09-07T15:32:30.252Z,63.49
2022-09-07T15:33:28.212Z,63.16
2022-09-07T15:34:28.159Z,66.39
2022-09-07T15:35:28.210Z,64.61
2022-09-07T15:36:28.900Z,64.78
2022-09-07T15:39:00.147Z,65.10
2022-09-07T15:39:30.522Z,60.75
2022-09-07T15:40:28.160Z,61.55
2022-09-07T15:41:28.129Z,61.39
2022-09-07T15:43:30.469Z,62.84
2022-09-07T15:44:28.419Z,61.39
2022-09-07T15:45:29.148Z,65.26
2022-09-07T15:46:28.037Z,63.97
2022-09-07T15:47:47.502Z,65.58
2022-09-07T15:48:30.005Z,61.87
2022-09-07T15:49:27.997Z,57.69
2022-09-07T15:50:28.001Z,62.20
2022-09-07T15:52:31.509Z,66.39
2022-09-07T15:54:29.961Z,63.49
2022-09-07T15:55:27.968Z,64.94
2022-09-07T15:56:29.095Z,56.72
2022-09-07T15:58:29.955Z,62.52
2022-09-07T15:59:28.739Z,64.45
2022-09-07T16:00:27.885Z,61.23
2022-09-07T16:03:33.539Z,64.13
2022-09-07T16:04:27.965Z,58.65
2022-09-07T16:05:30.892Z,63.16
2022-09-07T16:06:28.938Z,61.55
2022-09-07T16:08:33.355Z,65.58
2022-09-07T16:09:27.789Z,65.58
2022-09-07T16:10:31.048Z,62.20
2022-09-07T16:11:27.750Z,62.68
2022-09-07T16:13:31.406Z,65.26
2022-09-07T16:14:28.794Z,66.55
2022-09-07T16:15:27.726Z,63.33
2022-09-07T16:17:26.658Z,64.13
2022-09-07T16:17:35.730Z,64.13
2022-09-07T16:18:31.849Z,65.58
2022-09-07T16:19:29.544Z,65.74
2022-09-07T16:20:31.959Z,64.29
2022-09-07T16:21:27.698Z,63.49
2022-09-07T16:23:29.609Z,61.07
2022-09-07T16:24:28.191Z,62.68
2022-09-07T16:25:27.603Z,59.46
2022-09-07T16:26:27.587Z,62.20
2022-09-07T16:27:32.147Z,62.84
2022-09-07T16:28:29.853Z,65.58
2022-09-07T16:29:27.530Z,65.10
2022-09-07T16:30:27.696Z,65.58
2022-09-07T16:31:27.597Z,63.49
2022-09-07T16:33:36.614Z,64.45
2022-09-07T16:34:29.516Z,63.33
2022-09-07T16:35:27.487Z,63.16
2022-09-07T16:36:27.467Z,64.13
2022-09-07T16:37:27.467Z,65.10
2022-09-07T16:39:29.457Z,57.85
2022-09-07T16:40:27.441Z,63.97
2022-09-07T16:41:27.401Z,59.30
2022-09-07T16:42:27.412Z,61.07
2022-09-07T16:43:27.405Z,63.65
2022-09-07T16:44:27.388Z,63.97
2022-09-07T16:46:29.348Z,63.97
2022-09-07T16:47:27.364Z,61.23
2022-09-07T16:48:27.457Z,62.20
2022-09-07T16:49:27.296Z,64.45
2022-09-07T16:50:29.185Z,62.84
2022-09-07T16:51:28.608Z,63.81
2022-09-07T16:52:27.328Z,63.97
2022-09-07T16:53:27.276Z,63.00
2022-09-07T16:54:27.283Z,58.33
2022-09-07T16:55:27.268Z,63.81
2022-09-07T16:56:27.232Z,62.04
2022-09-07T16:58:35.224Z,61.71
2022-09-07T16:58:36.286Z,59.14
2022-09-07T16:59:29.229Z,63.00
2022-09-07T17:00:28.790Z,61.55
2022-09-07T17:01:27.285Z,59.14
2022-09-07T17:02:27.221Z,61.87
2022-09-07T17:03:27.200Z,63.00
2022-09-07T17:04:27.249Z,64.13
2022-09-07T17:05:27.141Z,60.42
2022-09-07T17:06:27.156Z,62.68
2022-09-07T17:07:28.114Z,65.42
2022-09-07T17:08:27.722Z,58.81
2022-09-07T17:09:27.130Z,56.56
2022-09-07T17:10:27.081Z,64.13
2022-09-07T17:11:27.091Z,64.13
2022-09-07T17:12:27.105Z,65.42
2022-09-07T17:13:27.077Z,64.13
2022-09-07T17:14:27.170Z,64.61
2022-09-07T17:15:27.070Z,60.75
2022-09-07T17:16:27.365Z,62.36
2022-09-07T17:17:27.376Z,63.81
2022-09-07T17:19:29.625Z,56.88
2022-09-07T17:20:28.271Z,63.81
2022-09-07T17:21:27.334Z,62.36
2022-09-07T17:22:27.521Z,59.62
2022-09-07T17:23:27.018Z,61.07
2022-09-07T17:24:26.946Z,62.04
2022-09-07T17:25:26.942Z,61.07
2022-09-07T17:26:27.420Z,65.26
2022-09-07T17:27:27.990Z,60.10
2022-09-07T17:28:27.245Z,63.33
2022-09-07T17:29:27.179Z,64.29
2022-09-07T17:30:26.898Z,62.36
2022-09-07T17:32:29.143Z,58.81
2022-09-07T17:33:28.763Z,61.87
2022-09-07T17:34:27.083Z,65.42
2022-09-07T17:35:27.121Z,59.46
2022-09-07T17:36:26.891Z,58.97
2022-09-07T17:37:26.834Z,61.23
2022-09-07T17:39:28.955Z,60.10
2022-09-07T17:40:27.067Z,58.81
2022-09-07T17:41:26.789Z,60.26
2022-09-07T17:43:38.746Z,64.94
2022-09-07T17:43:54.972Z,57.85
2022-09-07T17:44:32.071Z,56.72
2022-09-07T17:45:28.010Z,66.06
2022-09-07T17:46:27.781Z,58.01
2022-09-07T17:47:26.756Z,56.88
2022-09-07T17:48:26.684Z,60.26
2022-09-07T17:49:26.727Z,63.16
2022-09-07T17:50:26.751Z,65.10
2022-09-07T17:51:26.963Z,62.04
2022-09-07T17:52:26.682Z,61.23
2022-09-07T17:53:26.768Z,62.84
2022-09-07T17:54:26.619Z,57.20
2022-09-07T17:55:27.631Z,63.00
2022-09-07T17:56:26.610Z,64.29
2022-09-07T17:57:26.667Z,60.91
2022-09-07T17:58:26.827Z,59.30
2022-09-07T18:00:28.722Z,62.36
2022-09-07T18:01:26.786Z,62.20
2022-09-07T18:02:27.663Z,58.81
2022-09-07T18:03:30.131Z,66.06
2022-09-07T18:04:28.546Z,61.39
2022-09-07T18:05:26.535Z,59.46
2022-09-07T18:06:26.564Z,61.87
2022-09-07T18:07:26.718Z,61.71
2022-09-07T18:08:26.556Z,63.33
2022-09-07T18:09:26.545Z,63.33
2022-09-07T18:10:26.680Z,58.97
2022-09-07T18:12:28.519Z,64.61
2022-09-07T18:13:35.711Z,63.97
2022-09-07T18:14:28.583Z,58.81
2022-09-07T18:15:27.279Z,64.13
2022-09-07T18:16:26.534Z,56.72
2022-09-07T18:17:26.511Z,57.52
2022-09-07T18:18:26.408Z,62.36
2022-09-07T18:19:26.455Z,58.33
2022-09-07T18:20:26.507Z,60.26
2022-09-07T18:21:26.519Z,64.45
2022-09-07T18:22:26.598Z,63.81
2022-09-07T18:23:26.586Z,58.65
2022-09-07T18:24:26.384Z,62.68
2022-09-07T18:25:26.854Z,55.59
2022-09-07T18:26:26.333Z,63.00
2022-09-07T18:27:26.303Z,57.52
2022-09-07T18:29:31.281Z,60.59
2022-09-07T18:30:28.445Z,58.81
2022-09-07T18:31:26.467Z,59.30
2022-09-07T18:32:26.540Z,59.78
2022-09-07T18:33:26.462Z,60.10
2022-09-07T18:34:26.344Z,60.75
2022-09-07T18:35:26.437Z,61.23
2022-09-07T18:36:26.406Z,61.55
2022-09-07T18:37:26.422Z,64.13
2022-09-07T18:38:26.353Z,62.04
2022-09-07T18:39:26.427Z,62.04
2022-09-07T18:40:26.465Z,60.59
2022-09-07T18:41:26.305Z,61.39
2022-09-07T18:42:26.284Z,59.30
2022-09-07T18:43:27.923Z,62.36
2022-09-07T18:45:28.369Z,61.23
2022-09-07T18:46:27.402Z,61.87
2022-09-07T18:47:28.680Z,59.62
2022-09-07T18:48:27.250Z,59.94
2022-09-07T18:49:26.206Z,59.94
2022-09-07T18:50:26.106Z,56.07
2022-09-07T18:51:27.166Z,59.30
2022-09-07T18:53:28.149Z,64.29
2022-09-07T18:54:26.034Z,61.07
2022-09-07T18:55:26.013Z,61.87
2022-09-07T18:56:25.990Z,58.33
2022-09-07T18:57:26.254Z,59.62
2022-09-07T18:58:26.619Z,63.97
2022-09-07T18:59:26.142Z,59.78
2022-09-07T19:00:26.183Z,62.84
2022-09-07T19:01:26.225Z,64.45
2022-09-07T19:02:26.097Z,63.49
2022-09-07T19:03:25.997Z,58.33
2022-09-07T19:05:49.098Z,56.72
2022-09-07T19:06:27.863Z,60.42
2022-09-07T19:07:29.545Z,57.20
2022-09-07T19:08:26.840Z,58.33
2022-09-07T19:09:25.897Z,61.39
2022-09-07T19:10:25.896Z,61.07
2022-09-07T19:11:25.831Z,63.81
2022-09-07T19:12:26.011Z,57.85
2022-09-07T19:13:26.020Z,60.26
2022-09-07T19:14:25.956Z,54.30
2022-09-07T19:15:26.024Z,59.46
2022-09-07T19:16:25.995Z,62.36
2022-09-07T19:17:25.847Z,55.91
2022-09-07T19:18:25.761Z,52.21
2022-09-07T19:19:25.812Z,60.26
2022-09-07T19:20:26.095Z,53.17
2022-09-07T19:21:25.741Z,51.88
2022-09-07T19:22:25.948Z,62.36
2022-09-07T19:23:25.904Z,60.26
2022-09-07T19:24:25.680Z,62.68
2022-09-07T19:25:25.868Z,59.62
2022-09-07T19:26:25.688Z,58.17
2022-09-07T19:27:25.813Z,56.24
2022-09-07T19:28:25.910Z,60.59
2022-09-07T19:29:25.980Z,58.97
2022-09-07T19:30:25.646Z,58.65
2022-09-07T19:31:26.615Z,57.36
2022-09-07T19:32:25.610Z,56.72
2022-09-07T19:33:25.632Z,61.39
2022-09-07T19:34:25.650Z,60.10
2022-09-07T19:35:25.639Z,56.24
2022-09-07T19:36:25.793Z,59.46
2022-09-07T19:37:25.904Z,59.30
2022-09-07T19:38:25.745Z,58.81
2022-09-07T19:39:25.581Z,62.36
2022-09-07T19:40:25.632Z,56.56
2022-09-07T19:41:25.541Z,61.87
2022-09-07T19:42:25.584Z,63.65
2022-09-07T19:43:25.504Z,62.68
2022-09-07T19:44:25.476Z,61.07
2022-09-07T19:45:25.523Z,60.59
2022-09-07T19:46:25.508Z,62.36
2022-09-07T19:47:25.495Z,58.17
2022-09-07T19:48:25.418Z,57.69
2022-09-07T19:49:25.439Z,60.91
2022-09-07T19:50:25.447Z,58.65
2022-09-07T19:51:25.584Z,64.13
2022-09-07T19:52:25.487Z,63.97
2022-09-07T19:53:25.480Z,60.91
2022-09-07T19:54:25.504Z,56.40
2022-09-07T19:55:25.500Z,56.40
2022-09-07T19:56:25.480Z,55.11
2022-09-07T19:57:25.527Z,61.23
2022-09-07T19:58:57.765Z,63.00
2022-09-07T19:59:25.403Z,58.65
2022-09-07T20:00:25.557Z,63.49
2022-09-07T20:01:25.449Z,61.39
2022-09-07T20:02:25.324Z,60.10
2022-09-07T20:03:25.387Z,60.75
2022-09-07T20:04:25.294Z,61.55
2022-09-07T20:05:26.305Z,58.01
2022-09-07T20:06:25.305Z,61.55
2022-09-07T20:07:25.245Z,60.42
2022-09-07T20:08:25.278Z,59.78
2022-09-07T20:09:25.238Z,62.84
2022-09-07T20:10:25.251Z,62.36
2022-09-07T20:11:25.230Z,60.59
2022-09-07T20:12:25.192Z,62.68
2022-09-07T20:13:25.200Z,59.62
2022-09-07T20:14:25.183Z,62.20
2022-09-07T20:15:25.184Z,59.30
2022-09-07T20:16:25.231Z,65.10
2022-09-07T20:17:25.183Z,59.94
2022-09-07T20:18:25.174Z,60.75
2022-09-07T20:19:25.141Z,58.01
2022-09-07T20:20:25.147Z,59.46
2022-09-07T20:21:25.123Z,61.87
2022-09-07T20:22:25.099Z,60.42
2022-09-07T20:23:25.131Z,59.14
2022-09-07T20:24:25.114Z,61.71
2022-09-07T20:25:25.139Z,62.36
2022-09-07T20:26:25.116Z,57.85
2022-09-07T20:27:25.162Z,55.75
2022-09-07T20:28:25.020Z,64.29
2022-09-07T20:29:29.053Z,58.81
2022-09-07T20:30:26.026Z,55.27
2022-09-07T20:31:25.082Z,55.11
2022-09-07T20:32:25.034Z,62.52
2022-09-07T20:33:24.982Z,63.65
2022-09-07T20:34:24.987Z,56.40
2022-09-07T20:35:24.975Z,64.94
2022-09-07T20:36:24.930Z,60.75
2022-09-07T20:37:24.995Z,64.45
2022-09-07T20:38:24.939Z,63.65
2022-09-07T20:39:24.918Z,65.74
2022-09-07T20:40:24.972Z,63.33
2022-09-07T20:41:24.863Z,63.00
2022-09-07T20:42:24.915Z,64.94
2022-09-07T20:43:24.943Z,60.91
2022-09-07T20:44:24.867Z,65.10
2022-09-07T20:45:28.536Z,62.20
2022-09-07T20:46:26.858Z,61.87
2022-09-07T20:47:24.843Z,65.58
2022-09-07T20:48:24.872Z,64.45
2022-09-07T20:49:24.815Z,60.10
2022-09-07T20:50:25.712Z,63.81
2022-09-07T20:51:24.811Z,60.91
2022-09-07T20:52:24.808Z,62.84
2022-09-07T20:53:24.753Z,61.55
2022-09-07T20:54:25.032Z,63.81
2022-09-07T20:55:24.716Z,64.29
2022-09-07T20:56:24.744Z,59.30
2022-09-07T20:57:24.753Z,58.49
2022-09-07T20:58:24.736Z,58.33
2022-09-07T20:59:24.721Z,57.36
2022-09-07T21:00:24.691Z,58.17
2022-09-07T21:01:24.725Z,54.14
2022-09-07T21:02:24.748Z,64.13
2022-09-07T21:03:24.661Z,59.30
2022-09-07T21:04:24.702Z,61.55
2022-09-07T21:05:24.654Z,61.23
2022-09-07T21:06:24.640Z,59.94
2022-09-07T21:07:24.573Z,57.85
2022-09-07T21:08:24.641Z,60.10
2022-09-07T21:09:24.592Z,55.59
2022-09-07T21:10:24.598Z,48.02
2022-09-07T21:11:24.581Z,58.97
2022-09-07T21:12:24.532Z,53.33
2022-09-07T21:13:24.545Z,55.27
2022-09-07T21:14:25.545Z,52.69
2022-09-07T21:15:24.597Z,58.49
2022-09-07T21:16:24.560Z,56.88
2022-09-07T21:17:24.508Z,59.30
2022-09-07T21:18:24.533Z,55.11
2022-09-07T21:19:24.503Z,56.72
2022-09-07T21:20:24.504Z,57.36
2022-09-07T21:21:24.477Z,58.33
2022-09-07T21:22:24.449Z,46.73
2022-09-07T21:23:24.541Z,47.05
2022-09-07T21:24:24.443Z,47.21
2022-09-07T21:25:24.413Z,54.46
2022-09-07T21:26:24.456Z,55.75
2022-09-07T21:27:24.394Z,55.59
2022-09-07T21:28:24.419Z,56.88
2022-09-07T21:29:24.389Z,55.91
2022-09-07T21:30:24.373Z,60.42
2022-09-07T21:31:24.458Z,52.53
2022-09-07T21:32:24.341Z,60.59
2022-09-07T21:33:24.368Z,63.65
2022-09-07T21:34:24.350Z,61.07
2022-09-07T21:35:24.321Z,52.69
2022-09-07T21:36:24.370Z,50.92
2022-09-07T21:37:24.328Z,54.30
2022-09-07T21:38:24.266Z,52.21
2022-09-07T21:39:24.266Z,48.66
2022-09-07T21:40:24.297Z,53.66
2022-09-07T21:41:24.261Z,54.62
2022-09-07T21:42:24.295Z,50.76
2022-09-07T21:43:24.314Z,53.17
2022-09-07T21:44:25.638Z,46.57
2022-09-07T21:45:24.182Z,50.92
2022-09-07T21:46:24.264Z,55.11
2022-09-07T21:47:24.202Z,54.30
2022-09-07T21:48:24.187Z,50.27
2022-09-07T21:49:24.875Z,57.36
2022-09-07T21:50:24.167Z,57.20
2022-09-07T21:51:24.166Z,64.29
2022-09-07T21:52:24.130Z,59.62
2022-09-07T21:53:24.143Z,54.62
2022-09-07T21:54:24.111Z,58.33
2022-09-07T21:55:24.108Z,55.75
2022-09-07T21:56:24.102Z,50.27
2022-09-07T21:57:24.055Z,50.43
2022-09-07T21:58:24.119Z,52.69
2022-09-07T21:59:24.022Z,54.79
2022-09-07T22:00:24.003Z,56.40
2022-09-07T22:01:24.350Z,47.21
2022-09-07T22:02:24.048Z,57.85
2022-09-07T22:03:24.022Z,54.62
2022-09-07T22:04:24.017Z,50.11
2022-09-07T22:05:24.016Z,55.27
2022-09-07T22:06:24.001Z,57.20
2022-09-07T22:07:23.944Z,51.56
2022-09-07T22:08:23.941Z,52.21
2022-09-07T22:09:23.977Z,48.50
2022-09-07T22:10:24.761Z,55.91
2022-09-07T22:11:23.957Z,49.95
2022-09-07T22:12:23.910Z,47.37
2022-09-07T22:13:23.889Z,58.97
2022-09-07T22:14:23.917Z,54.30
2022-09-07T22:15:23.880Z,52.21
2022-09-07T22:16:23.881Z,47.05
2022-09-07T22:17:23.821Z,50.43
2022-09-07T22:18:23.883Z,52.21
2022-09-07T22:19:23.797Z,48.18
2022-09-07T22:20:23.817Z,47.53
2022-09-07T22:21:23.798Z,60.75
2022-09-07T22:22:23.785Z,54.14
2022-09-07T22:23:23.762Z,48.82
2022-09-07T22:24:23.762Z,48.50
2022-09-07T22:25:24.757Z,49.47
2022-09-07T22:26:23.729Z,58.01
2022-09-07T22:27:23.723Z,44.47
2022-09-07T22:28:23.733Z,45.28
2022-09-07T22:29:23.726Z,51.56
2022-09-07T22:30:23.693Z,49.79
2022-09-07T22:31:23.802Z,57.20
2022-09-07T22:32:23.738Z,47.37
2022-09-07T22:33:23.661Z,55.43
2022-09-07T22:34:23.654Z,48.66
2022-09-07T22:35:23.668Z,46.25
2022-09-07T22:36:23.610Z,50.43
2022-09-07T22:37:23.646Z,46.25
2022-09-07T22:38:23.638Z,54.14
2022-09-07T22:39:23.601Z,55.43
2022-09-07T22:40:23.586Z,49.31
2022-09-07T22:41:23.574Z,47.05
2022-09-07T22:42:23.589Z,52.37
2022-09-07T22:43:23.547Z,59.30
2022-09-07T22:44:23.541Z,49.15
2022-09-07T22:45:23.575Z,48.02
2022-09-07T22:46:23.607Z,47.05
2022-09-07T22:47:23.520Z,48.18
2022-09-07T22:48:23.482Z,56.07
2022-09-07T22:49:23.494Z,52.69
2022-09-07T22:50:23.507Z,48.02
2022-09-07T22:51:23.467Z,58.81
2022-09-07T22:52:23.418Z,54.62
2022-09-07T22:53:23.450Z,51.56
2022-09-07T22:54:23.478Z,53.01
2022-09-07T22:55:23.442Z,59.14
2022-09-07T22:56:23.394Z,59.14
2022-09-07T22:57:23.406Z,55.91
2022-09-07T22:58:23.395Z,46.41
2022-09-07T22:59:23.424Z,54.79
2022-09-07T23:00:23.355Z,62.68
2022-09-07T23:01:23.403Z,56.88
2022-09-07T23:02:23.347Z,55.43
2022-09-07T23:03:23.500Z,56.07
2022-09-07T23:04:24.250Z,51.88
2022-09-07T23:05:23.343Z,47.53
2022-09-07T23:06:23.300Z,46.08
2022-09-07T23:07:23.300Z,48.34
2022-09-07T23:08:23.447Z,45.12
2022-09-07T23:09:23.264Z,57.85
2022-09-07T23:10:24.255Z,48.82
2022-09-07T23:11:23.248Z,51.08
2022-09-07T23:12:23.219Z,49.63
2022-09-07T23:13:23.201Z,56.24
2022-09-07T23:14:23.219Z,50.60
2022-09-07T23:15:23.203Z,51.72
2022-09-07T23:16:23.227Z,53.50
2022-09-07T23:17:23.192Z,48.50
2022-09-07T23:18:23.211Z,49.63
2022-09-07T23:19:23.166Z,46.57
2022-09-07T23:20:23.152Z,52.37
2022-09-07T23:21:23.180Z,45.76
2022-09-07T23:22:23.140Z,50.27
2022-09-07T23:23:23.124Z,48.18
2022-09-07T23:24:23.135Z,48.02
2022-09-07T23:25:23.769Z,48.66
2022-09-07T23:26:23.116Z,47.37
2022-09-07T23:27:23.085Z,55.11
2022-09-07T23:28:23.067Z,50.92
2022-09-07T23:29:23.076Z,49.15
2022-09-07T23:30:23.048Z,49.31
2022-09-07T23:31:23.133Z,45.76
2022-09-07T23:32:23.048Z,57.52
2022-09-07T23:33:23.033Z,48.34
2022-09-07T23:34:22.989Z,46.25
2022-09-07T23:35:23.032Z,53.82
2022-09-07T23:36:22.993Z,55.91
2022-09-07T23:37:22.969Z,48.82
2022-09-07T23:38:23.004Z,52.53
2022-09-07T23:39:22.952Z,50.60
2022-09-07T23:40:22.961Z,47.70
2022-09-07T23:41:23.050Z,54.30
2022-09-07T23:42:22.957Z,56.88
2022-09-07T23:43:22.894Z,55.27
2022-09-07T23:44:22.953Z,53.33
2022-09-07T23:45:22.885Z,53.17
2022-09-07T23:46:22.940Z,49.31
2022-09-07T23:47:22.864Z,45.44
2022-09-07T23:48:22.857Z,45.44
2022-09-07T23:49:22.849Z,52.69
2022-09-07T23:50:22.821Z,45.44
2022-09-07T23:51:24.430Z,48.82
2022-09-07T23:52:23.810Z,47.37
2022-09-07T23:53:22.805Z,63.16
2022-09-07T23:54:22.813Z,56.72
2022-09-07T23:55:22.770Z,59.94
2022-09-07T23:56:22.809Z,46.25
2022-09-07T23:57:22.768Z,46.41
2022-09-07T23:58:22.794Z,49.63
2022-09-07T23:59:22.785Z,47.37
